Time;durP1;ratioP1;P1;durP2;ratioP2;P2;SDS_P1;SDS_P2;PMS_P1;PMS_P2;Temp;Humidity;BMP_temperature;BMP_pressure;BME280_temperature;BME280_humidity;BME280_pressure;Samples;Min_cycle;Max_cycle;Signal;HPM_P1;HPM_P2
2021/03/30 00:00:43;;;;;;;1.02;0.93;;;6.20;99.90;;;6.44;100.00;69857.34;4995741;28;20206;-73
2021/03/30 00:03:11;;;;;;;0.70;0.60;;;6.10;99.90;;;6.67;100.00;74799.03;4994158;28;20215;-72
2021/03/30 00:05:38;;;;;;;0.75;0.60;;;6.20;99.90;;;6.85;100.00;75149.97;4995288;28;20200;-72
2021/03/30 00:08:05;;;;;;;0.70;0.60;;;6.20;99.90;;;6.83;100.00;74490.81;4995817;28;20274;-72
2021/03/30 00:10:37;;;;;;;0.80;0.70;;;6.20;99.90;;;6.75;100.00;73170.53;4993340;28;20294;-71
2021/03/30 00:13:06;;;;;;;0.73;0.63;;;6.20;99.90;;;6.65;100.00;72502.41;5007762;28;20278;-72
2021/03/30 00:15:35;;;;;;;0.70;0.60;;;6.30;99.90;;;6.67;100.00;74142.78;4995315;28;20180;-72
2021/03/30 00:18:03;;;;;;;0.70;0.60;;;6.20;99.90;;;6.48;100.00;74119.34;4995269;28;20207;-72
2021/03/30 00:20:30;;;;;;;0.77;0.70;;;6.10;99.90;;;6.46;100.00;77394.22;4995095;28;20226;-71
2021/03/30 00:22:57;;;;;;;0.73;0.60;;;6.00;99.90;;;6.63;100.00;80042.81;4995175;28;20180;-72
2021/03/30 00:25:24;;;;;;;0.70;0.60;;;6.00;99.90;;;6.71;100.00;79724.97;4995260;28;20199;-72
2021/03/30 00:27:51;;;;;;;0.70;0.60;;;6.00;99.90;;;6.84;100.00;79414.03;4995324;28;20195;-72
2021/03/30 00:30:19;;;;;;;0.80;0.70;;;6.20;99.90;;;6.71;100.00;78412.59;4994906;28;20196;-71
2021/03/30 00:32:47;;;;;;;0.70;0.63;;;6.20;99.90;;;6.64;100.00;77746.72;4994199;28;20200;-72
2021/03/30 00:35:15;;;;;;;0.70;0.60;;;6.20;99.90;;;6.62;100.00;77743.31;4994592;28;20228;-71
2021/03/30 00:37:42;;;;;;;1.25;1.15;;;6.20;99.90;;;6.87;100.00;78433.22;4995195;28;20583;-73
2021/03/30 00:40:11;;;;;;;0.70;0.60;;;6.20;99.90;;;6.62;100.00;76431.88;4995123;28;20175;-71
2021/03/30 00:42:39;;;;;;;0.70;0.60;;;6.20;99.90;;;6.60;100.00;78725.66;4994839;28;20191;-72
2021/03/30 00:45:09;;;;;;;0.70;0.70;;;6.10;99.90;;;6.67;100.00;78078.94;4994636;28;20199;-71
2021/03/30 00:47:39;;;;;;;0.70;0.60;;;6.00;99.90;;;6.84;100.00;75476.59;4992980;28;20187;-71
2021/03/30 00:50:13;;;;;;;0.70;0.60;;;6.20;99.90;;;6.47;100.00;73462.75;4983217;28;20235;-73
2021/03/30 00:52:41;;;;;;;1.45;1.13;;;6.00;99.90;;;6.25;100.00;76711.41;4993681;28;20278;-72
2021/03/30 00:55:41;;;;;;;0.70;0.60;;;5.90;99.90;;;6.45;100.00;81659.03;4994632;28;20191;-71
2021/03/30 00:58:08;;;;;;;0.70;0.70;;;5.90;99.90;;;6.67;100.00;82019.00;4994679;28;20194;-72
2021/03/30 01:00:35;;;;;;;0.70;0.60;;;6.00;99.90;;;6.68;100.00;81362.72;4993565;28;20203;-73
2021/03/30 01:03:04;;;;;;;0.70;0.60;;;6.20;99.90;;;6.74;100.00;79729.88;4992362;28;20216;-72
2021/03/30 01:05:33;;;;;;;0.70;0.70;;;6.30;99.90;;;6.80;100.00;77767.16;4994071;28;20192;-73
2021/03/30 01:08:33;;;;;;;0.80;0.70;;;6.20;99.90;;;6.48;100.00;73791.00;4993664;28;20629;-72
2021/03/30 01:11:14;;;;;;;0.70;0.60;;;6.10;99.90;;;6.52;100.00;76418.50;4976988;28;20226;-71
2021/03/30 01:14:11;;;;;;;0.80;0.70;;;6.10;99.90;;;6.50;100.00;75432.25;4994050;28;20210;-72
2021/03/30 01:16:43;;;;;;;0.80;0.70;;;5.90;99.90;;;6.49;100.00;73137.75;4992997;28;20246;-74
2021/03/30 01:19:29;;;;;;;0.70;0.60;;;6.00;99.90;;;6.47;100.00;74118.03;4991978;28;20211;-73
2021/03/30 01:22:55;;;;;;;0.77;0.70;;;5.90;99.90;;;6.27;100.00;76386.31;4994083;28;20222;-73
2021/03/30 01:25:26;;;;;;;0.70;0.60;;;5.90;99.90;;;6.32;100.00;77047.34;4915457;29;20662;-73
2021/03/30 01:28:02;;;;;;;0.70;0.60;;;5.90;99.90;;;6.39;100.00;75089.97;4981792;28;20262;-73
2021/03/30 01:30:34;;;;;;;0.90;0.80;;;5.90;99.90;;;6.28;100.00;75076.78;4993796;28;20718;-73
2021/03/30 01:33:06;;;;;;;0.70;0.60;;;5.90;99.90;;;6.41;100.00;75421.00;4992457;28;20577;-71
2021/03/30 01:35:37;;;;;;;0.80;0.60;;;5.80;99.90;;;6.22;100.00;73103.69;4993716;28;20184;-73
2021/03/30 01:38:06;;;;;;;0.70;0.60;;;5.80;99.90;;;6.10;100.00;74398.00;4993070;28;20211;-71
2021/03/30 01:40:35;;;;;;;0.70;0.60;;;5.80;99.90;;;6.15;100.00;76370.25;5004142;28;20203;-72
2021/03/30 01:43:07;;;;;;;0.70;0.60;;;5.80;99.90;;;6.13;100.00;76367.53;4992636;28;20192;-72
2021/03/30 01:45:35;;;;;;;0.80;0.70;;;5.80;99.90;;;6.20;100.00;77032.47;4993678;28;20183;-72
2021/03/30 01:48:04;;;;;;;1.30;1.20;;;5.80;99.90;;;6.18;100.00;75391.19;4993833;28;20215;-72
2021/03/30 01:50:33;;;;;;;0.70;0.68;;;5.70;99.90;;;6.07;100.00;73411.78;4992152;28;20188;-71
2021/03/30 01:53:01;;;;;;;0.75;0.60;;;5.70;99.90;;;6.00;100.00;74385.59;5000906;28;20229;-71
2021/03/30 01:55:28;;;;;;;0.77;0.60;;;5.60;99.90;;;5.82;100.00;74690.06;4993983;28;20191;-72
2021/03/30 01:57:58;;;;;;;0.70;0.70;;;5.50;99.90;;;5.93;100.00;75358.09;4992803;28;20176;-72
2021/03/30 02:00:31;;;;;;;0.80;0.70;;;5.50;99.90;;;5.87;100.00;75350.81;4993651;28;20633;-73
2021/03/30 02:03:01;;;;;;;0.70;0.60;;;5.60;99.90;;;5.97;100.00;75035.94;4998361;28;20207;-71
2021/03/30 02:05:28;;;;;;;0.70;0.60;;;5.70;99.90;;;6.08;100.00;71121.50;4992849;28;20184;-73
2021/03/30 02:07:59;;;;;;;0.80;0.70;;;5.70;99.90;;;6.08;100.00;66218.09;4993232;28;20590;-72
2021/03/30 02:10:43;;;;;;;0.70;0.60;;;5.80;99.90;;;6.01;100.00;63271.75;4992075;28;20208;-73
2021/03/30 02:13:22;;;;;;;0.70;0.57;;;5.80;99.90;;;6.01;100.00;60335.03;4992451;28;20195;-72
2021/03/30 02:15:53;;;;;;;0.70;0.60;;;5.80;99.90;;;6.05;100.00;53907.06;4993403;28;20582;-73
2021/03/30 02:18:22;;;;;;;0.70;0.60;;;5.60;99.90;;;5.91;100.00;49967.84;4992193;28;20218;-71
2021/03/30 02:20:57;;;;;;;0.70;0.60;;;5.60;99.90;;;5.90;100.00;51953.34;4993053;28;20176;-72
2021/03/30 02:23:26;;;;;;;0.70;0.60;;;5.70;99.90;;;6.00;100.00;48751.94;4993393;28;20572;-73
2021/03/30 02:25:57;;;;;;;0.77;0.68;;;5.60;99.90;;;6.08;100.00;42421.84;4993858;28;20179;-72
2021/03/30 02:28:34;;;;;;;0.70;0.60;;;5.50;99.90;;;6.01;100.00;32214.44;4993160;28;20176;-71
2021/03/30 02:31:02;;;;;;;0.70;0.60;;;5.50;99.90;;;5.91;100.00;29435.66;4978632;28;20183;-71
2021/03/30 02:33:32;;;;;;;0.70;0.63;;;5.40;99.90;;;5.69;100.00;31614.78;4991922;28;20630;-72
2021/03/30 02:36:01;;;;;;;0.70;0.60;;;5.40;99.90;;;5.49;100.00;36990.84;4991949;28;20200;-73
2021/03/30 02:38:31;;;;;;;0.70;0.60;;;5.30;99.90;;;5.44;100.00;43657.22;4993189;28;20211;-71
2021/03/30 02:40:59;;;;;;;0.70;0.60;;;5.20;99.90;;;5.37;100.00;48124.50;4993417;28;20195;-72
2021/03/30 02:43:27;;;;;;;0.80;0.70;;;5.10;99.90;;;5.26;100.00;52862.94;4992407;28;20606;-72
2021/03/30 02:45:55;;;;;;;0.77;0.68;;;5.10;99.90;;;5.27;100.00;57978.81;4993529;28;20188;-72
2021/03/30 02:48:22;;;;;;;0.70;0.60;;;5.00;99.90;;;5.30;100.00;60912.72;4993080;28;20243;-72
2021/03/30 02:50:51;;;;;;;0.80;0.70;;;4.90;99.90;;;5.44;100.00;61904.44;4991629;28;20274;-72
2021/03/30 02:53:19;;;;;;;1.08;0.82;;;4.90;99.90;;;5.37;100.00;60919.19;4992997;28;20271;-72
2021/03/30 02:55:48;;;;;;;0.70;0.60;;;4.90;99.90;;;5.29;100.00;60585.84;4994375;28;20195;-72
2021/03/30 02:58:15;;;;;;;0.75;0.60;;;4.80;99.90;;;5.23;100.00;61230.91;4996913;28;20183;-72
2021/03/30 03:00:44;;;;;;;0.70;0.60;;;4.80;99.90;;;5.10;100.00;63171.59;4995935;28;20706;-72
2021/03/30 03:03:13;;;;;;;0.80;0.70;;;4.80;99.90;;;5.00;100.00;65768.66;4995911;28;20216;-72
2021/03/30 03:05:43;;;;;;;0.70;0.60;;;4.70;99.90;;;5.13;100.00;66435.00;4995354;28;20219;-73
2021/03/30 03:08:12;;;;;;;0.70;0.60;;;4.70;99.90;;;5.07;100.00;65776.81;4996156;28;20535;-72
2021/03/30 03:10:41;;;;;;;0.70;0.60;;;4.80;99.90;;;4.97;100.00;66416.81;4995643;28;20235;-72
2021/03/30 03:13:11;;;;;;;0.70;0.60;;;4.70;99.90;;;4.92;100.00;67716.22;4996546;28;20198;-71
2021/03/30 03:15:41;;;;;;;0.70;0.60;;;4.60;99.90;;;4.90;100.00;68039.44;4996532;28;20725;-73
2021/03/30 03:18:10;;;;;;;0.70;0.60;;;4.60;99.90;;;4.99;100.00;67071.50;4995038;28;20246;-72
2021/03/30 03:20:38;;;;;;;0.80;0.70;;;4.50;99.90;;;4.74;100.00;65739.03;4994883;28;20206;-73
2021/03/30 03:23:07;;;;;;;0.80;0.70;;;4.50;99.90;;;4.60;100.00;66700.53;4994698;28;20561;-73
2021/03/30 03:25:35;;;;;;;0.70;0.60;;;4.40;99.90;;;4.74;100.00;69000.09;4995281;28;20183;-73
2021/03/30 03:28:02;;;;;;;0.80;0.70;;;4.30;99.90;;;4.80;100.00;69006.78;4994380;28;20593;-73
2021/03/30 03:30:31;;;;;;;0.70;0.60;;;4.40;99.90;;;4.69;100.00;68667.78;4994878;28;20286;-72
2021/03/30 03:33:05;;;;;;;0.70;0.60;;;4.40;99.90;;;4.52;100.00;69300.09;4996144;28;20210;-71
2021/03/30 03:35:32;;;;;;;0.80;0.70;;;4.30;99.90;;;4.53;100.00;70605.66;4995576;28;20698;-72
2021/03/30 03:38:01;;;;;;;0.70;0.60;;;4.20;99.90;;;4.56;100.00;71262.09;4996149;28;20219;-72
2021/03/30 03:40:29;;;;;;;0.70;0.60;;;4.20;99.90;;;4.51;100.00;71255.81;4996077;28;20263;-71
2021/03/30 03:42:57;;;;;;;0.80;0.70;;;4.20;99.90;;;4.56;100.00;71588.47;4994622;28;20278;-72
2021/03/30 03:45:25;;;;;;;0.73;0.65;;;4.20;99.90;;;4.44;100.00;71247.03;4995524;28;20188;-72
2021/03/30 03:47:52;;;;;;;0.70;0.60;;;4.20;99.90;;;4.38;100.00;72218.47;4994332;28;20231;-71
2021/03/30 03:50:19;;;;;;;0.70;0.70;;;4.10;99.90;;;4.37;100.00;72870.66;4987183;28;20187;-71
2021/03/30 03:52:51;;;;;;;0.70;0.70;;;4.10;99.90;;;4.52;100.00;74195.53;4996077;28;20192;-71
2021/03/30 03:55:20;;;;;;;0.70;0.60;;;4.10;99.90;;;4.50;100.00;73213.84;4995712;28;20214;-72
2021/03/30 03:57:52;;;;;;;1.25;1.15;;;4.10;99.90;;;4.45;100.00;72880.25;4995699;28;20278;-72
2021/03/30 04:00:22;;;;;;;0.70;0.70;;;4.10;99.90;;;4.34;100.00;73193.22;4998918;28;20199;-72
2021/03/30 04:02:57;;;;;;;0.80;0.70;;;4.10;99.90;;;4.35;100.00;73521.66;4993658;28;20206;-72
2021/03/30 04:05:35;;;;;;;0.80;0.70;;;4.00;99.90;;;4.33;100.00;73519.03;5010310;28;20191;-72
2021/03/30 04:08:08;;;;;;;0.80;0.70;;;4.00;99.90;;;4.30;100.00;73841.00;4993321;28;20196;-72
2021/03/30 04:10:38;;;;;;;0.80;0.80;;;4.00;99.90;;;4.32;100.00;73517.75;4995024;28;20546;-71
2021/03/30 04:13:06;;;;;;;0.80;0.70;;;4.00;99.90;;;4.33;100.00;73518.41;4989323;28;20180;-71
2021/03/30 04:15:33;;;;;;;0.70;0.70;;;4.00;99.90;;;4.42;100.00;73202.88;4995406;28;20250;-72
2021/03/30 04:18:01;;;;;;;0.98;0.88;;;4.10;99.90;;;4.55;100.00;72567.22;4995386;28;20215;-71
2021/03/30 04:20:29;;;;;;;0.70;0.60;;;4.30;99.90;;;4.64;100.00;71271.50;4974235;28;20196;-72
2021/03/30 04:22:58;;;;;;;0.70;0.70;;;4.50;99.90;;;4.83;100.00;68358.50;4991575;28;20624;-72
2021/03/30 04:25:25;;;;;;;0.70;0.70;;;4.70;99.90;;;5.11;100.00;63498.59;4994894;28;20187;-72
2021/03/30 04:27:53;;;;;;;0.80;0.70;;;4.90;99.90;;;5.20;100.00;57971.59;4994718;28;20238;-72
2021/03/30 04:30:21;;;;;;;0.70;0.60;;;5.00;99.90;;;5.38;100.00;54084.88;4995246;28;20190;-71
2021/03/30 04:32:49;;;;;;;0.70;0.60;;;5.10;99.90;;;5.46;100.00;48503.03;4996475;28;20597;-71
2021/03/30 04:35:16;;;;;;;0.70;0.60;;;5.20;99.90;;;5.47;100.00;41413.66;5003038;28;20676;-72
2021/03/30 04:37:43;;;;;;;0.80;0.70;;;5.20;99.90;;;5.51;100.00;35940.69;4993825;28;20699;-71
2021/03/30 04:40:13;;;;;;;0.80;0.70;;;5.10;99.90;;;5.29;100.00;31187.84;4993018;28;20184;-72
2021/03/30 04:42:41;;;;;;;0.75;0.70;;;4.90;99.90;;;5.02;100.00;32126.03;4993624;28;20218;-72
2021/03/30 04:45:10;;;;;;;0.70;0.60;;;4.80;99.90;;;4.89;100.00;34131.00;4993791;28;20679;-72
2021/03/30 04:47:37;;;;;;;0.70;0.65;;;4.70;99.90;;;4.87;100.00;34601.63;4995015;28;20180;-71
2021/03/30 04:50:07;;;;;;;0.80;0.73;;;4.60;99.90;;;4.88;100.00;36498.06;4993145;28;20637;-72
2021/03/30 04:52:35;;;;;;;0.70;0.63;;;4.70;99.90;;;4.85;100.00;38532.16;4993685;28;20202;-71
2021/03/30 04:55:03;;;;;;;0.70;0.60;;;4.60;99.90;;;4.78;100.00;38181.47;4998303;28;20241;-71
2021/03/30 04:57:29;;;;;;;0.70;0.60;;;4.60;99.90;;;4.78;100.00;39740.38;4999603;28;20606;-71
2021/03/30 04:59:57;;;;;;;0.70;0.60;;;4.50;99.90;;;4.97;100.00;41475.38;4994627;28;20235;-71
2021/03/30 05:02:24;;;;;;;0.70;0.60;;;4.70;99.90;;;5.00;100.00;40670.88;4994292;28;20199;-71
2021/03/30 05:04:51;;;;;;;0.70;0.60;;;4.80;99.90;;;5.08;100.00;37516.97;4994154;28;20250;-71
2021/03/30 05:07:19;;;;;;;0.70;0.60;;;4.90;99.90;;;5.16;100.00;35041.84;4994570;28;20179;-71
2021/03/30 05:09:46;;;;;;;0.70;0.63;;;5.00;99.90;;;5.46;100.00;33848.47;4994674;28;20180;-72
2021/03/30 05:12:13;;;;;;;0.70;0.60;;;5.20;99.90;;;5.72;100.00;25895.06;4994348;28;20546;-71
2021/03/30 05:14:40;;;;;;;0.80;0.70;;;5.40;99.90;;;5.69;100.00;17028.31;4993707;28;20223;-72
2021/03/30 05:17:06;;;;;;;1.02;0.93;;;5.50;99.90;;;5.82;100.00;8901.84;4994416;28;20202;-72
2021/03/30 05:19:33;;;;;;;0.70;0.60;;;5.40;99.90;;;5.64;100.00;4433.03;4993360;28;20211;-71
2021/03/30 05:22:00;;;;;;;0.80;0.70;;;5.30;99.90;;;5.47;100.00;5314.44;4993254;28;20187;-71
2021/03/30 05:24:28;;;;;;;0.70;0.60;;;5.10;99.90;;;5.44;100.00;7598.19;4994388;28;20720;-72
2021/03/30 05:26:55;;;;;;;0.70;0.60;;;5.10;99.90;;;5.44;100.00;7703.44;4993942;28;20187;-73
2021/03/30 05:29:22;;;;;;;0.70;0.60;;;5.20;99.90;;;5.45;100.00;6623.97;4994085;28;20238;-71
2021/03/30 05:31:49;;;;;;;3.72;2.83;;;5.20;99.90;;;5.43;100.00;6435.69;4994092;28;20203;-73
2021/03/30 05:34:17;;;;;;;0.70;0.60;;;5.20;99.90;;;5.44;100.00;7214.88;4993341;28;20614;-71
2021/03/30 05:36:44;;;;;;;0.80;0.70;;;5.20;99.90;;;5.46;100.00;6088.16;4994243;28;20541;-72
2021/03/30 05:39:11;;;;;;;0.80;0.70;;;5.10;99.90;;;5.32;100.00;6426.38;4994364;28;20178;-72
2021/03/30 05:41:39;;;;;;;0.70;0.60;;;5.00;99.90;;;5.27;100.00;8770.13;4993769;28;20202;-71
2021/03/30 05:44:07;;;;;;;0.70;0.60;;;5.00;99.90;;;5.21;100.00;12950.53;4975689;28;20665;-72
2021/03/30 05:46:36;;;;;;;0.70;0.60;;;4.90;99.90;;;5.15;100.00;17406.94;4992819;28;20201;-72
2021/03/30 05:49:02;;;;;;;0.70;0.60;;;4.80;99.90;;;5.24;100.00;20886.06;4993857;28;20302;-71
2021/03/30 05:51:34;;;;;;;0.75;0.70;;;4.80;99.90;;;5.18;100.00;23300.94;4992765;28;20206;-73
2021/03/30 05:54:03;;;;;;;0.70;0.60;;;4.90;99.90;;;5.25;100.00;24645.97;4993090;28;20204;-73
2021/03/30 05:56:31;;;;;;;0.70;0.60;;;5.00;99.90;;;5.40;100.00;26133.69;4999518;28;20491;-71
2021/03/30 05:59:00;;;;;;;0.70;0.70;;;5.10;99.90;;;5.63;100.00;24535.03;4995128;28;20199;-72
2021/03/30 06:01:28;;;;;;;0.70;0.60;;;5.30;99.90;;;5.91;100.00;16397.13;4992712;28;20592;-72
2021/03/30 06:04:00;;;;;;;0.80;0.70;;;5.50;99.90;;;6.24;100.00;15819.66;4998172;28;20580;-71
2021/03/30 06:06:28;;;;;;;0.70;0.60;;;6.00;99.90;;;6.80;100.00;7987.69;4994093;28;20245;-71
2021/03/30 06:08:54;;;;;;;0.70;0.60;;;6.60;99.90;;;7.14;100.00;-5961.69;4999732;28;20183;-71
2021/03/30 06:11:22;;;;;;;0.70;0.60;;;7.20;99.90;;;7.63;100.00;-18661.44;4994480;28;20946;-73
2021/03/30 06:13:54;;;;;;;0.70;0.60;;;7.70;99.90;;;7.92;100.00;-20897.72;4998788;28;20195;-73
2021/03/30 06:16:33;;;;;;;0.70;0.60;;;7.70;99.90;;;8.09;100.00;-20902.41;4995745;28;20610;-71
2021/03/30 06:19:03;;;;;;;0.70;0.60;;;7.90;99.90;;;8.42;100.00;-20911.31;4994802;28;20578;-72
2021/03/30 06:21:30;;;;;;;0.70;0.60;;;8.40;99.90;;;8.69;100.00;-20918.78;5006853;28;20530;-72
2021/03/30 06:23:59;;;;;;;0.70;0.60;;;8.30;99.90;;;8.77;100.00;-20920.75;4992287;28;20282;-72
2021/03/30 06:26:27;;;;;;;0.70;0.50;;;8.20;99.90;;;8.96;100.00;-20926.00;5001229;28;20460;-73
2021/03/30 06:28:55;;;;;;;0.80;0.77;;;8.50;99.90;;;9.10;100.00;-20929.88;5000829;28;20807;-74
2021/03/30 06:31:23;;;;;;;0.70;0.60;;;8.60;99.90;;;9.35;100.00;-20936.53;4998777;28;20448;-72
2021/03/30 06:33:58;;;;;;;0.70;0.50;;;8.90;99.90;;;9.49;100.00;-20940.41;4996965;28;20557;-74
2021/03/30 06:36:29;;;;;;;0.70;0.60;;;9.00;99.90;;;9.48;100.00;-20940.13;4996305;28;20942;-70
2021/03/30 06:39:01;;;;;;;0.70;0.50;;;8.60;99.90;;;9.28;100.00;-20934.72;4998746;28;20443;-72
2021/03/30 06:41:42;;;;;;;0.70;0.60;;;8.40;99.90;;;9.33;100.00;-20935.97;4995455;28;20444;-73
2021/03/30 06:44:29;;;;;;;0.70;0.60;;;8.50;99.90;;;9.22;100.00;-20933.06;4996052;28;20474;-72
2021/03/30 06:47:04;;;;;;;0.70;0.60;;;8.50;99.90;;;9.09;100.00;-20929.47;4995849;28;20436;-72
2021/03/30 06:49:34;;;;;;;0.70;0.50;;;8.40;99.90;;;9.12;100.00;-20930.44;4991804;28;20458;-74
2021/03/30 06:52:14;;;;;;;0.70;0.50;;;8.40;99.90;;;9.17;100.00;-20931.81;4999961;28;20429;-73
2021/03/30 06:54:56;;;;;;;0.80;0.70;;;8.40;99.90;;;9.36;100.00;-20936.81;4996915;28;20474;-71
2021/03/30 06:57:46;;;;;;;0.70;0.60;;;8.80;99.90;;;10.16;100.00;-20958.53;4978254;28;20442;-72
2021/03/30 07:00:18;;;;;;;0.70;0.60;;;9.30;99.90;;;10.90;100.00;-20978.63;4990729;28;20456;-74
2021/03/30 07:02:48;;;;;;;0.70;0.60;;;9.70;99.90;;;11.27;100.00;-20988.72;5005397;28;20441;-74
2021/03/30 07:05:39;;;;;;;0.80;0.60;;;9.90;98.90;;;11.56;100.00;-20996.59;5011226;28;20438;-74
2021/03/30 07:08:08;;;;;;;0.70;0.60;;;9.90;98.80;;;11.71;100.00;-21000.44;4991571;28;20541;-74
2021/03/30 07:10:38;;;;;;;0.80;0.60;;;10.00;97.10;;;12.02;100.00;-21009.00;4996500;28;20443;-74
2021/03/30 07:13:07;;;;;;;0.70;0.60;;;10.30;97.10;;;12.47;100.00;-21021.03;4996340;28;20442;-73
2021/03/30 07:15:35;;;;;;;0.80;0.63;;;10.50;97.50;;;12.75;100.00;-21028.63;4999792;28;20535;-74
2021/03/30 07:18:17;;;;;;;0.70;0.60;;;10.80;92.30;;;13.19;100.00;-21040.47;4996733;28;20466;-72
2021/03/30 07:20:47;;;;;;;1.97;1.00;;;11.10;91.40;;;13.27;100.00;-21042.69;5003496;28;20441;-73
2021/03/30 07:23:22;;;;;;;1.03;0.93;;;11.30;90.20;;;13.39;100.00;-21046.00;4996373;28;20470;-73
2021/03/30 07:26:04;;;;;;;0.80;0.60;;;11.60;87.50;;;14.31;100.00;-21070.78;5001080;28;20465;-74
2021/03/30 07:28:37;;;;;;;0.80;0.60;;;11.80;82.40;;;14.06;100.00;-21063.91;5002263;28;20442;-74
2021/03/30 07:31:11;;;;;;;0.80;0.70;;;11.70;83.10;;;13.63;100.00;-21052.34;4992259;28;20466;-71
2021/03/30 07:33:47;;;;;;;2.50;1.83;;;11.80;82.10;;;13.84;100.00;-21057.97;4998042;28;20476;-73
2021/03/30 07:36:18;;;;;;;1.07;0.97;;;12.10;81.90;;;14.26;100.00;-21069.41;4995083;28;20955;-73
2021/03/30 07:38:49;;;;;;;1.27;1.17;;;12.20;77.80;;;14.20;100.00;-21067.75;4998144;28;20461;-73
2021/03/30 07:41:20;;;;;;;0.80;0.70;;;12.20;77.20;;;13.90;100.00;-21059.78;4994387;28;20443;-74
2021/03/30 07:43:49;;;;;;;0.70;0.60;;;12.40;76.90;;;14.37;100.00;-21072.44;4994014;28;20437;-74
2021/03/30 07:46:21;;;;;;;0.80;0.70;;;12.70;76.90;;;14.74;100.00;-21082.50;4994567;28;20438;-74
2021/03/30 07:48:50;;;;;;;0.70;0.60;;;12.90;73.00;;;14.77;100.00;-21083.19;4997987;28;20469;-73
2021/03/30 07:51:22;;;;;;;0.73;0.67;;;13.10;70.40;;;15.17;100.00;-21093.91;4995330;28;20470;-72
2021/03/30 07:53:55;;;;;;;0.80;0.60;;;13.50;71.20;;;15.86;100.00;-21112.63;4993742;28;20449;-74
2021/03/30 07:56:50;;;;;;;0.93;0.83;;;14.20;68.70;;;16.84;100.00;-21138.84;4999756;28;20422;-75
2021/03/30 07:59:46;;;;;;;0.97;0.83;;;14.80;59.70;;;17.91;100.00;-21167.50;4990146;28;20439;-75
2021/03/30 08:02:26;;;;;;;0.80;0.70;;;15.10;55.60;;;18.90;100.00;-21194.22;4994332;28;20853;-75
2021/03/30 08:05:08;;;;;;;0.80;0.67;;;15.60;52.10;;;20.05;100.00;-21224.97;4994290;28;20476;-74
2021/03/30 08:07:50;;;;;;;0.80;0.60;;;15.70;48.90;;;20.01;100.00;-21224.03;4998799;28;20916;-74
2021/03/30 08:10:32;;;;;;;0.80;0.60;;;15.80;48.30;;;19.68;100.00;-21215.16;4994510;28;20537;-74
2021/03/30 08:13:31;;;;;;;0.70;0.60;;;16.30;47.00;;;20.05;100.00;-21224.97;4989694;28;20522;-74
2021/03/30 08:16:01;;;;;;;1.00;0.90;;;16.80;42.90;;;20.44;100.00;-21235.50;4995683;28;21027;-74
2021/03/30 08:18:31;;;;;;;1.70;1.03;;;17.00;40.70;;;20.53;100.00;-21237.81;4994950;28;20481;-74
2021/03/30 08:21:03;;;;;;;1.20;1.10;;;17.20;39.00;;;20.17;100.00;-21228.25;4995295;28;20485;-73
2021/03/30 08:23:46;;;;;;;1.20;0.73;;;16.90;37.30;;;20.89;100.00;-21247.50;4994180;28;20470;-73
2021/03/30 08:26:20;;;;;;;1.07;0.80;;;17.30;36.40;;;20.76;100.00;-21243.97;4997914;28;20437;-74
2021/03/30 08:28:57;;;;;;;0.70;0.50;;;17.10;36.80;;;21.67;100.00;-21268.25;5004374;28;20532;-73
2021/03/30 08:31:29;;;;;;;0.70;0.60;;;17.70;33.00;;;20.90;100.00;-21247.66;5005564;28;20844;-74
2021/03/30 08:33:59;;;;;;;0.70;0.60;;;17.70;31.50;;;21.73;100.00;-21269.75;4994080;28;20482;-73
2021/03/30 08:36:30;;;;;;;0.80;0.70;;;18.00;31.70;;;21.64;100.00;-21267.44;4992887;28;20483;-74
2021/03/30 08:39:02;;;;;;;0.77;0.60;;;18.00;29.40;;;21.99;100.00;-21276.69;4992960;28;20867;-73
2021/03/30 08:41:56;;;;;;;1.00;0.70;;;18.50;29.80;;;21.88;100.00;-21273.84;4989425;28;20494;-74
2021/03/30 08:44:32;;;;;;;0.80;0.60;;;18.40;25.90;;;21.79;100.00;-21271.38;4985576;28;20441;-73
2021/03/30 08:47:32;;;;;;;0.80;0.70;;;18.20;27.70;;;22.40;100.00;-21287.72;5005782;28;20473;-73
2021/03/30 08:50:15;;;;;;;0.70;0.50;;;18.60;26.00;;;22.14;100.00;-21280.78;4997654;28;21030;-74
2021/03/30 08:52:44;;;;;;;0.80;0.60;;;18.10;23.30;;;22.98;100.00;-21303.25;5013724;28;20746;-74
2021/03/30 08:55:12;;;;;;;0.73;0.60;;;18.00;23.20;;;22.96;100.00;-21302.72;5000248;28;20544;-73
2021/03/30 08:57:48;;;;;;;0.70;0.50;;;18.40;25.20;;;23.63;99.34;-21320.66;4994648;28;20860;-74
2021/03/30 09:00:17;;;;;;;0.70;0.60;;;18.80;21.20;;;22.99;100.00;-21303.38;4994436;28;20923;-74
2021/03/30 09:02:46;;;;;;;0.70;0.60;;;19.00;23.00;;;23.85;100.00;-21326.50;4994075;28;20446;-74
2021/03/30 09:05:18;;;;;;;0.80;0.60;;;19.40;20.90;;;22.91;100.00;-21301.34;4994354;28;20443;-74
2021/03/30 09:07:48;;;;;;;0.70;0.50;;;20.00;20.60;;;23.71;98.15;-21322.56;4992493;28;20546;-74
2021/03/30 09:10:17;;;;;;;0.70;0.50;;;20.20;18.60;;;24.17;97.45;-21334.78;4976073;28;20436;-74
2021/03/30 09:12:46;;;;;;;0.80;0.70;;;20.40;17.50;;;23.22;99.41;-21309.50;4994762;28;20473;-74
2021/03/30 09:15:15;;;;;;;0.90;0.73;;;19.90;18.40;;;24.45;96.90;-21342.25;4992264;28;20458;-74
2021/03/30 09:17:56;;;;;;;0.80;0.70;;;20.70;16.60;;;24.42;96.33;-21341.59;4992544;28;20453;-74
2021/03/30 09:20:26;;;;;;;0.87;0.60;;;20.60;15.60;;;24.71;96.18;-21349.19;5005814;28;20782;-73
2021/03/30 09:22:57;;;;;;;0.70;0.57;;;20.70;16.90;;;24.22;94.70;-21336.28;4992800;28;20438;-74
2021/03/30 09:25:45;;;;;;;1.20;1.07;;;20.10;15.20;;;24.03;93.60;-21331.25;4993944;28;20445;-74
2021/03/30 09:28:15;;;;;;;1.93;0.90;;;20.70;14.80;;;24.03;93.29;-21331.25;5007670;28;20530;-75
2021/03/30 09:30:43;;;;;;;0.70;0.50;;;20.90;13.50;;;24.47;94.87;-21342.94;4992033;28;20470;-74
2021/03/30 09:33:11;;;;;;;1.17;0.70;;;20.60;14.30;;;23.97;92.88;-21329.63;4993432;28;20569;-74
2021/03/30 09:35:38;;;;;;;1.43;0.77;;;20.70;12.50;;;25.15;92.57;-21360.84;4993651;28;20494;-74
2021/03/30 09:38:06;;;;;;;0.70;0.50;;;20.90;12.60;;;24.71;93.85;-21349.19;4993547;28;20447;-74
2021/03/30 09:40:36;;;;;;;0.70;0.50;;;21.10;12.30;;;24.81;91.22;-21351.91;4992461;28;20906;-74
2021/03/30 09:43:06;;;;;;;0.70;0.50;;;21.20;10.70;;;24.95;89.69;-21355.69;4991325;28;20446;-73
2021/03/30 09:45:36;;;;;;;0.70;0.50;;;21.10;10.20;;;24.39;91.04;-21340.78;4989325;28;20439;-74
2021/03/30 09:48:07;;;;;;;0.80;0.50;;;21.50;9.70;;;24.83;89.37;-21352.56;4992353;28;20463;-74
2021/03/30 09:50:40;;;;;;;0.93;0.77;;;21.40;8.80;;;24.66;87.01;-21347.97;4992258;28;20449;-75
2021/03/30 09:53:09;;;;;;;1.40;1.00;;;22.10;7.60;;;24.69;88.19;-21348.78;5003731;28;20447;-75
2021/03/30 09:55:38;;;;;;;1.40;0.60;;;22.00;7.40;;;25.57;86.43;-21372.09;4991005;28;20466;-74
2021/03/30 09:58:09;;;;;;;1.17;1.07;;;21.30;5.40;;;25.27;86.94;-21364.25;5006820;28;20502;-73
2021/03/30 10:00:39;;;;;;;1.00;0.87;;;21.50;6.90;;;25.90;86.97;-21380.91;4995195;28;20434;-73
2021/03/30 10:03:09;;;;;;;0.70;0.50;;;22.20;7.50;;;26.64;82.25;-21400.41;5006233;28;20814;-73
2021/03/30 10:05:38;;;;;;;0.70;0.50;;;22.40;3.30;;;26.36;81.55;-21392.97;5005294;28;20430;-71
2021/03/30 10:08:18;;;;;;;0.80;0.80;;;22.60;2.40;;;26.10;82.77;-21386.06;5013218;28;20502;-71
2021/03/30 10:10:50;;;;;;;0.70;0.50;;;23.00;2.30;;;27.10;78.70;-21412.72;5001521;28;20498;-71
2021/03/30 10:13:26;;;;;;;0.70;0.50;;;23.10;1.00;;;26.25;81.48;-21390.25;5008352;28;20423;-70
2021/03/30 10:15:56;;;;;;;0.70;0.50;;;23.40;2.40;;;26.20;81.53;-21388.75;5000187;28;20513;-71
2021/03/30 10:18:27;;;;;;;0.70;0.50;;;23.30;1.60;;;26.96;81.90;-21409.06;4994699;28;20458;-71
2021/03/30 10:20:57;;;;;;;0.70;0.50;;;23.70;1.20;;;26.35;79.77;-21392.81;4994574;28;20438;-71
2021/03/30 10:23:30;;;;;;;0.70;0.60;;;22.80;1.00;;;27.05;78.34;-21411.22;4996250;28;20818;-71
2021/03/30 10:26:15;;;;;;;0.80;0.60;;;23.10;1.00;;;26.78;81.06;-21404.19;4992105;28;20431;-70
2021/03/30 10:28:51;;;;;;;1.10;0.80;;;23.20;2.00;;;25.82;79.85;-21378.75;4998207;28;20849;-73
2021/03/30 10:31:28;;;;;;;0.70;0.60;;;23.50;1.00;;;26.40;77.33;-21394.19;4997956;28;20806;-73
2021/03/30 10:33:55;;;;;;;0.70;0.60;;;23.80;1.00;;;26.77;76.60;-21403.94;5010168;28;20470;-71
2021/03/30 10:36:23;;;;;;;1.20;0.60;;;23.00;1.00;;;26.41;78.22;-21394.31;4991891;28;20513;-71
2021/03/30 10:39:09;;;;;;;0.70;0.50;;;23.40;1.00;;;26.38;80.24;-21393.50;5000373;28;20454;-72